createdAt,value
2022-09-01T00:04:47.237Z,2.53
2022-09-01T00:09:49.935Z,2.60
2022-09-01T00:14:53.041Z,2.40
2022-09-01T00:19:55.750Z,2.50
2022-09-01T00:24:58.323Z,3.40
2022-09-01T00:30:01.081Z,2.97
2022-09-01T00:35:04.135Z,2.58
2022-09-01T00:40:09.242Z,2.90
2022-09-01T00:45:11.983Z,2.28
2022-09-01T00:50:17.467Z,2.50
2022-09-01T00:55:25.975Z,2.95
2022-09-01T01:00:31.123Z,2.80
2022-09-01T01:05:40.410Z,3.20
2022-09-01T01:10:43.125Z,2.70
2022-09-01T01:15:45.650Z,2.85
2022-09-01T01:21:13.965Z,3.42
2022-09-01T01:26:16.554Z,3.00
2022-09-01T01:31:22.970Z,2.75
2022-09-01T01:36:33.859Z,2.92
2022-09-01T01:41:44.174Z,2.83
2022-09-01T01:46:53.160Z,3.20
2022-09-01T01:51:59.163Z,3.53
2022-09-01T01:57:05.470Z,3.50
2022-09-01T02:02:09.858Z,3.50
2022-09-01T02:12:19.455Z,3.25
2022-09-01T02:17:22.691Z,3.50
2022-09-01T02:22:25.858Z,4.30
2022-09-01T02:27:29.682Z,2.95
2022-09-01T02:32:32.496Z,3.70
2022-09-01T02:37:35.138Z,3.78
2022-09-01T02:42:42.727Z,3.22
2022-09-01T02:47:46.754Z,3.75
2022-09-01T02:52:50.059Z,3.53
2022-09-01T02:57:57.148Z,3.75
2022-09-01T03:03:01.880Z,3.42
2022-09-01T03:08:07.570Z,2.83
2022-09-01T03:13:17.447Z,3.47
2022-09-01T03:18:20.288Z,4.03
2022-09-01T03:23:25.371Z,3.60
2022-09-01T03:28:28.006Z,3.08
2022-09-01T03:33:31.093Z,3.55
2022-09-01T03:38:34.301Z,3.50
2022-09-01T03:43:39.374Z,3.45
2022-09-01T03:48:52.095Z,3.20
2022-09-01T03:53:55.218Z,3.20
2022-09-01T03:58:59.674Z,3.22
2022-09-01T04:04:03.111Z,3.80
2022-09-01T04:09:07.619Z,3.47
2022-09-01T04:14:11.270Z,3.00
2022-09-01T04:19:20.436Z,3.38
2022-09-01T04:24:28.034Z,3.17
2022-09-01T04:29:31.944Z,3.28
2022-09-01T04:34:38.281Z,3.70
2022-09-01T04:39:51.459Z,3.22
2022-09-01T04:44:57.479Z,2.65
2022-09-01T04:50:02.054Z,3.10
2022-09-01T04:55:05.058Z,3.40
2022-09-01T05:00:22.321Z,2.83
2022-09-01T05:05:25.229Z,3.30
2022-09-01T05:10:30.278Z,3.30
2022-09-01T05:16:02.535Z,3.30
2022-09-01T05:21:09.932Z,3.10
2022-09-01T05:26:17.967Z,3.33
2022-09-01T05:31:22.767Z,3.25
2022-09-01T05:36:26.822Z,2.70
2022-09-01T05:41:33.774Z,3.10
2022-09-01T05:46:39.072Z,3.40
2022-09-01T05:51:50.895Z,3.75
2022-09-01T05:57:12.775Z,3.20
2022-09-01T06:07:28.571Z,2.70
2022-09-01T06:12:34.405Z,3.00
2022-09-01T06:17:37.029Z,3.43
2022-09-01T06:22:41.152Z,3.00
2022-09-01T06:27:45.955Z,3.10
2022-09-01T06:32:49.847Z,3.00
2022-09-01T06:37:52.894Z,2.58
2022-09-01T06:43:16.300Z,3.00
2022-09-01T06:48:23.895Z,3.00
2022-09-01T06:53:32.559Z,2.70
2022-09-01T06:58:38.299Z,2.75
2022-09-01T07:03:41.676Z,2.40
2022-09-01T07:09:20.016Z,2.60
2022-09-01T07:20:28.490Z,3.63
2022-09-01T07:26:00.711Z,2.55
2022-09-01T07:36:33.355Z,2.67
2022-09-01T07:47:52.757Z,2.67
2022-09-01T07:52:56.333Z,2.75
2022-09-01T07:58:00.063Z,2.13
2022-09-01T08:03:04.116Z,2.42
2022-09-01T08:08:18.581Z,2.40
2022-09-01T08:13:22.475Z,2.70
2022-09-01T08:18:25.530Z,2.63
2022-09-01T08:23:28.906Z,2.43
2022-09-01T08:28:31.705Z,2.50
2022-09-01T08:33:35.536Z,2.00
2022-09-01T08:38:39.944Z,2.53
2022-09-01T08:44:08.178Z,2.42
2022-09-01T08:49:26.202Z,2.50
2022-09-01T08:55:01.902Z,2.30
2022-09-01T09:00:09.564Z,1.80
2022-09-01T09:05:50.945Z,1.95
2022-09-01T09:11:13.079Z,2.00
2022-09-01T09:16:26.330Z,1.90
2022-09-01T09:21:40.866Z,1.80
2022-09-01T09:26:49.375Z,2.45
2022-09-01T09:32:39.400Z,1.80
2022-09-01T09:37:40.937Z,2.40
2022-09-01T09:43:01.916Z,1.80
2022-09-01T09:48:10.996Z,1.90
2022-09-01T09:53:17.697Z,1.55
2022-09-01T09:58:26.688Z,1.70
2022-09-01T10:03:42.576Z,1.70
2022-09-01T10:08:46.136Z,1.90
2022-09-01T10:18:52.413Z,1.67
2022-09-01T10:23:55.362Z,1.70
2022-09-01T10:29:01.801Z,1.77
2022-09-01T10:34:05.904Z,1.52
2022-09-01T10:39:21.935Z,1.88
2022-09-01T10:44:39.016Z,1.45
2022-09-01T10:49:46.745Z,1.83
2022-09-01T10:54:56.441Z,1.83
2022-09-01T11:00:39.860Z,1.52
2022-09-01T11:06:14.378Z,1.60
2022-09-01T11:11:17.020Z,1.58
2022-09-01T11:16:47.048Z,2.03
2022-09-01T11:22:39.289Z,1.75
2022-09-01T11:27:48.859Z,1.90
2022-09-01T11:32:57.274Z,1.55
2022-09-01T11:38:05.057Z,1.50
2022-09-01T11:43:14.577Z,1.42
2022-09-01T11:48:19.388Z,1.70
2022-09-01T11:58:34.583Z,1.85
2022-09-01T12:03:38.198Z,1.65
2022-09-01T12:08:42.910Z,1.55
2022-09-01T12:14:05.648Z,2.03
2022-09-01T12:19:24.327Z,1.80
2022-09-01T12:24:27.318Z,1.63
2022-09-01T12:29:32.422Z,1.58
2022-09-01T12:34:42.121Z,1.90
2022-09-01T12:39:48.542Z,2.22
2022-09-01T12:45:10.530Z,1.95
2022-09-01T12:50:16.366Z,1.88
2022-09-01T13:00:58.517Z,2.08
2022-09-01T13:06:10.516Z,1.93
2022-09-01T13:11:16.140Z,2.00
2022-09-01T13:16:18.994Z,1.83
2022-09-01T13:21:21.907Z,2.00
2022-09-01T13:27:20.144Z,1.73
2022-09-01T13:32:22.799Z,1.80
2022-09-01T13:37:26.456Z,1.95
2022-09-01T13:42:29.053Z,2.00
2022-09-01T13:52:34.621Z,2.10
2022-09-01T13:57:37.229Z,1.70
2022-09-01T14:02:47.106Z,2.95
2022-09-01T14:07:49.996Z,1.83
2022-09-01T14:12:52.916Z,1.73
2022-09-01T14:18:15.500Z,2.10
2022-09-01T14:23:19.776Z,2.10
2022-09-01T14:28:23.295Z,1.98
2022-09-01T14:33:27.322Z,1.80
2022-09-01T14:38:30.834Z,1.95
2022-09-01T14:43:33.672Z,1.70
2022-09-01T14:48:39.427Z,1.90
2022-09-01T14:53:44.721Z,1.90
2022-09-01T14:58:48.608Z,1.48
2022-09-01T15:03:51.776Z,1.88
2022-09-01T15:08:54.421Z,2.42
2022-09-01T15:18:59.654Z,1.70
2022-09-01T15:39:13.361Z,1.90
2022-09-01T15:44:16.227Z,2.13
2022-09-01T15:54:21.418Z,2.40
2022-09-01T15:59:24.210Z,1.70
2022-09-01T16:04:27.962Z,2.15
2022-09-01T16:09:31.052Z,2.40
2022-09-01T16:14:33.875Z,1.90
2022-09-01T16:19:46.002Z,1.77
2022-09-01T16:25:39.397Z,1.88
2022-09-01T16:30:42.712Z,2.13
2022-09-01T16:36:00.134Z,1.92
2022-09-01T16:41:21.459Z,2.13
2022-09-01T16:46:45.831Z,1.90
2022-09-01T16:52:15.234Z,2.17
2022-09-01T16:57:34.626Z,2.20
2022-09-01T17:02:56.686Z,2.13
2022-09-01T17:08:25.379Z,3.03
2022-09-01T17:13:40.501Z,2.13
2022-09-01T17:18:49.655Z,2.10
2022-09-01T17:24:20.101Z,2.10
2022-09-01T17:29:33.132Z,2.10
2022-09-01T17:34:57.714Z,2.20
2022-09-01T17:40:05.536Z,1.95
2022-09-01T17:45:47.365Z,2.40
2022-09-01T17:51:07.034Z,2.25
2022-09-01T17:56:33.938Z,2.05
2022-09-01T18:02:13.930Z,2.00
2022-09-01T18:07:42.325Z,2.03
2022-09-01T18:12:47.627Z,2.20
2022-09-01T18:18:06.311Z,1.98
2022-09-01T18:23:12.475Z,2.30
2022-09-01T18:28:16.055Z,1.92
2022-09-01T18:33:40.208Z,2.22
2022-09-01T18:38:58.269Z,2.15
2022-09-01T18:44:11.178Z,1.88
2022-09-01T18:49:30.801Z,3.13
2022-09-01T18:54:58.678Z,2.22
2022-09-01T19:00:18.712Z,2.20
2022-09-01T19:05:46.901Z,2.20
2022-09-01T19:11:04.063Z,2.28
2022-09-01T19:16:30.421Z,2.42
2022-09-01T19:21:35.432Z,2.00
2022-09-01T19:26:43.010Z,2.10
2022-09-01T19:32:09.518Z,2.20
2022-09-01T19:37:14.072Z,2.50
2022-09-01T19:42:57.816Z,2.10
2022-09-01T19:53:14.764Z,2.08
2022-09-01T19:58:54.916Z,2.47
2022-09-01T20:04:45.020Z,2.03
2022-09-01T20:09:54.639Z,2.10
2022-09-01T20:15:12.303Z,2.15
2022-09-01T20:20:25.011Z,2.20
2022-09-01T20:25:35.189Z,2.15
2022-09-01T20:30:44.740Z,2.38
2022-09-01T20:35:50.116Z,1.90
2022-09-01T20:40:54.985Z,2.28
2022-09-01T20:45:58.112Z,2.00
2022-09-01T20:51:11.753Z,2.25
2022-09-01T20:56:18.470Z,2.05
2022-09-01T21:01:27.783Z,2.10
2022-09-01T21:06:55.380Z,2.10
2022-09-01T21:12:08.663Z,2.35
2022-09-01T21:17:24.317Z,1.92
2022-09-01T21:22:27.710Z,1.80
2022-09-01T21:27:45.731Z,1.70
2022-09-01T21:32:49.576Z,2.00
2022-09-01T21:37:53.439Z,2.00
2022-09-01T21:43:04.217Z,2.20
2022-09-01T21:48:14.982Z,1.92
2022-09-01T21:53:17.887Z,1.88
2022-09-01T21:58:20.564Z,1.77
2022-09-01T22:03:23.317Z,1.98
2022-09-01T22:08:44.633Z,1.77
2022-09-01T22:13:51.356Z,2.08
2022-09-01T22:18:54.058Z,1.75
2022-09-01T22:23:57.295Z,1.60
2022-09-01T22:29:03.740Z,1.90
2022-09-01T22:34:10.574Z,2.00
2022-09-01T22:39:14.076Z,2.00
2022-09-01T22:44:18.886Z,1.83
2022-09-01T22:54:24.422Z,1.70
2022-09-01T22:59:28.167Z,2.27
2022-09-01T23:04:32.669Z,1.75
2022-09-01T23:14:39.379Z,1.77
2022-09-01T23:19:43.452Z,2.00
2022-09-01T23:24:48.285Z,2.05
2022-09-01T23:29:51.450Z,2.22
2022-09-01T23:34:54.021Z,2.00
2022-09-01T23:40:01.635Z,1.90
2022-09-01T23:45:06.089Z,1.90
2022-09-01T23:50:09.243Z,2.00
2022-09-01T23:55:11.852Z,1.80
